createdAt,value
2019-05-09T00:10:38.041Z,8.45
2019-05-09T00:21:04.404Z,8.43
2019-05-09T00:31:48.817Z,8.50
2019-05-09T00:42:27.902Z,8.50
2019-05-09T00:53:13.782Z,8.48
2019-05-09T01:03:53.894Z,8.38
2019-05-09T01:14:36.904Z,8.23
2019-05-09T01:25:14.063Z,8.02
2019-05-09T01:35:50.089Z,7.92
2019-05-09T01:46:30.755Z,7.96
2019-05-09T01:57:09.974Z,8.00
2019-05-09T02:07:48.152Z,8.04
2019-05-09T02:18:24.032Z,8.05
2019-05-09T02:29:07.738Z,8.04
2019-05-09T02:39:53.285Z,8.21
2019-05-09T02:50:32.955Z,8.28
2019-05-09T03:01:18.938Z,8.26
2019-05-09T03:12:21.010Z,8.28
2019-05-09T03:22:48.661Z,8.22
2019-05-09T03:33:30.791Z,8.12
2019-05-09T03:44:14.068Z,8.01
2019-05-09T03:54:54.799Z,7.84
2019-05-09T04:05:38.881Z,7.75
2019-05-09T04:16:24.003Z,7.80
2019-05-09T04:26:58.198Z,7.86
2019-05-09T04:37:42.071Z,8.04
2019-05-09T04:48:24.098Z,8.78
2019-05-09T04:59:08.978Z,12.25
2019-05-09T05:09:48.471Z,10.64
2019-05-09T05:20:32.823Z,14.63
2019-05-09T05:31:18.186Z,16.18
2019-05-09T05:41:57.634Z,12.30
2019-05-09T05:52:37.521Z,11.81
2019-05-09T06:03:21.008Z,17.75
2019-05-09T06:14:11.797Z,19.71
2019-05-09T06:24:44.917Z,14.94
2019-05-09T06:35:22.050Z,12.30
2019-05-09T06:46:09.592Z,16.84
2019-05-09T06:56:44.893Z,12.69
2019-05-09T07:07:27.954Z,12.14
2019-05-09T07:18:07.966Z,11.65
2019-05-09T07:28:42.025Z,12.11
2019-05-09T07:39:24.923Z,12.63
2019-05-09T07:50:08.762Z,12.93
2019-05-09T08:00:50.206Z,12.94
2019-05-09T08:11:28.261Z,13.13
2019-05-09T08:22:08.541Z,13.13
2019-05-09T08:32:51.142Z,13.36
2019-05-09T08:43:37.619Z,13.39
2019-05-09T08:54:14.363Z,12.69
2019-05-09T09:04:54.072Z,12.47
2019-05-09T09:15:58.099Z,12.79
2019-05-09T09:58:15.009Z,14.32
2019-05-09T10:08:58.189Z,14.67
2019-05-09T10:19:40.177Z,15.07
2019-05-09T10:30:23.322Z,15.94
2019-05-09T10:41:10.897Z,15.16
2019-05-09T10:51:43.180Z,16.13
2019-05-09T11:02:27.978Z,15.25
2019-05-09T11:13:08.000Z,14.97
2019-05-09T11:23:52.027Z,15.53
2019-05-09T11:34:37.637Z,15.83
2019-05-09T11:45:20.076Z,16.18
2019-05-09T11:56:02.997Z,16.20
2019-05-09T12:06:41.086Z,15.82
2019-05-09T12:17:25.723Z,15.17
2019-05-09T12:28:08.260Z,15.17
2019-05-09T12:38:50.438Z,15.20
2019-05-09T12:49:34.166Z,15.38
2019-05-09T13:00:20.091Z,15.77
2019-05-09T13:11:02.686Z,15.32
2019-05-09T13:21:44.156Z,15.72
2019-05-09T13:32:28.127Z,16.00
2019-05-09T13:43:03.405Z,16.10
2019-05-09T13:53:42.037Z,16.17
2019-05-09T14:04:28.628Z,16.72
2019-05-09T14:15:08.573Z,16.81
2019-05-09T14:25:51.848Z,17.04
2019-05-09T14:36:29.988Z,16.60
2019-05-09T14:47:13.310Z,16.66
2019-05-09T14:57:57.866Z,16.70
2019-05-09T15:08:40.165Z,16.79
2019-05-09T15:19:23.966Z,16.45
2019-05-09T15:30:04.132Z,16.65
2019-05-09T15:40:47.970Z,17.04
2019-05-09T15:51:32.763Z,18.13
2019-05-09T16:02:13.018Z,18.20
2019-05-09T16:12:55.112Z,17.91
2019-05-09T16:23:38.074Z,17.95
2019-05-09T16:34:22.213Z,18.91
2019-05-09T16:45:08.044Z,19.12
2019-05-09T16:55:50.501Z,18.62
2019-05-09T17:06:30.148Z,17.68
2019-05-09T17:17:12.662Z,17.34
2019-05-09T17:27:51.277Z,17.29
2019-05-09T17:38:27.862Z,17.31
2019-05-09T17:49:00.219Z,17.46
2019-05-09T17:59:41.939Z,17.31
2019-05-09T18:10:18.323Z,17.02
2019-05-09T18:21:00.440Z,16.92
2019-05-09T18:31:41.207Z,16.50
2019-05-09T18:42:17.899Z,16.08
2019-05-09T18:52:57.086Z,15.63
2019-05-09T19:03:32.391Z,13.89
2019-05-09T19:14:13.219Z,12.54
2019-05-09T19:24:53.422Z,12.33
2019-05-09T19:35:37.110Z,12.31
2019-05-09T19:46:20.598Z,12.32
2019-05-09T19:57:03.966Z,12.26
2019-05-09T20:07:41.303Z,12.06
2019-05-09T20:18:23.667Z,12.06
2019-05-09T20:29:07.238Z,11.96
2019-05-09T20:39:51.347Z,11.95
2019-05-09T20:50:34.885Z,11.86
2019-05-09T21:01:15.469Z,11.78
2019-05-09T21:11:58.294Z,11.69
2019-05-09T21:22:39.322Z,11.57
2019-05-09T21:33:23.385Z,11.58
2019-05-09T21:44:08.453Z,11.53
2019-05-09T21:54:49.758Z,11.47
2019-05-09T22:05:27.373Z,11.47
2019-05-09T22:16:08.654Z,11.46
2019-05-09T22:26:46.449Z,11.29
2019-05-09T22:37:24.579Z,11.07
2019-05-09T22:48:02.355Z,10.95
2019-05-09T22:58:43.465Z,10.86
2019-05-09T23:09:23.750Z,10.80
2019-05-09T23:20:02.482Z,10.58
2019-05-09T23:30:37.729Z,10.51
2019-05-09T23:41:15.242Z,10.16
2019-05-09T23:51:55.701Z,10.03
